createdAt,value
2023-11-30T00:00:15.197Z,10.73
2023-11-30T00:05:16.629Z,8.93
2023-11-30T00:10:18.580Z,11.00
2023-11-30T00:15:20.003Z,10.23
2023-11-30T00:20:21.389Z,10.35
2023-11-30T00:25:23.027Z,12.63
2023-11-30T00:30:24.412Z,11.07
2023-11-30T00:35:25.833Z,11.10
2023-11-30T00:40:27.121Z,10.02
2023-11-30T00:45:28.480Z,9.55
2023-11-30T00:50:29.876Z,9.30
2023-11-30T00:55:31.208Z,8.40
2023-11-30T01:00:32.629Z,8.53
2023-11-30T01:05:34.017Z,9.18
2023-11-30T01:10:35.381Z,8.63
2023-11-30T01:15:36.676Z,9.93
2023-11-30T01:20:37.945Z,9.02
2023-11-30T01:25:39.276Z,7.53
2023-11-30T01:30:40.618Z,9.40
2023-11-30T01:35:41.891Z,7.40
2023-11-30T01:40:43.200Z,7.73
2023-11-30T01:45:44.611Z,8.02
2023-11-30T01:50:46.389Z,8.17
2023-11-30T01:55:48.975Z,7.65
2023-11-30T02:00:51.221Z,7.47
2023-11-30T02:05:52.930Z,7.67
2023-11-30T02:10:54.389Z,8.50
2023-11-30T02:15:55.787Z,7.70
2023-11-30T02:20:57.200Z,7.07
2023-11-30T02:25:58.630Z,7.60
2023-11-30T02:30:59.942Z,7.67
2023-11-30T02:36:01.406Z,7.18
2023-11-30T02:41:02.818Z,6.47
2023-11-30T02:46:04.226Z,6.88
2023-11-30T02:51:05.917Z,7.03
2023-11-30T02:56:07.527Z,6.50
2023-11-30T03:01:08.879Z,6.78
2023-11-30T03:06:13.288Z,6.23
2023-11-30T03:11:14.774Z,7.13
2023-11-30T03:16:23.138Z,7.15
2023-11-30T03:21:24.680Z,6.97
2023-11-30T03:26:26.055Z,6.60
2023-11-30T03:31:27.403Z,6.40
2023-11-30T03:36:28.782Z,6.50
2023-11-30T03:41:30.174Z,6.97
2023-11-30T03:46:31.533Z,5.90
2023-11-30T03:51:32.916Z,5.97
2023-11-30T03:56:34.299Z,5.70
2023-11-30T04:01:35.689Z,5.70
2023-11-30T04:06:37.075Z,5.38
2023-11-30T04:11:38.423Z,5.63
2023-11-30T04:16:39.820Z,4.97
2023-11-30T04:21:41.320Z,5.50
2023-11-30T04:26:42.766Z,4.95
2023-11-30T04:31:44.146Z,5.70
2023-11-30T04:36:45.866Z,4.80
2023-11-30T04:41:48.111Z,4.60
2023-11-30T04:46:49.446Z,4.77
2023-11-30T04:51:50.836Z,5.15
2023-11-30T04:56:52.171Z,6.32
2023-11-30T05:01:53.617Z,6.10
2023-11-30T05:06:55.073Z,5.32
2023-11-30T05:11:56.485Z,5.00
2023-11-30T05:16:57.906Z,5.70
2023-11-30T05:21:59.298Z,5.15
2023-11-30T05:27:00.627Z,5.03
2023-11-30T05:32:01.944Z,5.75
2023-11-30T05:37:06.281Z,5.47
2023-11-30T05:42:08.290Z,6.50
2023-11-30T05:47:09.579Z,6.93
2023-11-30T05:52:10.922Z,5.10
2023-11-30T05:57:12.722Z,5.00
2023-11-30T06:02:14.098Z,6.20
2023-11-30T06:07:15.393Z,6.05
2023-11-30T06:12:16.822Z,5.63
2023-11-30T06:17:18.340Z,5.57
2023-11-30T06:22:19.630Z,6.10
2023-11-30T06:27:21.372Z,6.93
2023-11-30T06:32:22.832Z,15.13
2023-11-30T06:37:24.142Z,7.55
2023-11-30T06:42:25.504Z,7.30
2023-11-30T06:47:27.043Z,6.68
2023-11-30T06:52:28.391Z,8.30
2023-11-30T06:57:29.736Z,6.43
2023-11-30T07:02:31.057Z,7.28
2023-11-30T07:07:36.511Z,8.20
2023-11-30T07:12:38.754Z,6.80
2023-11-30T07:17:40.111Z,6.53
2023-11-30T07:22:41.443Z,6.30
2023-11-30T07:27:43.029Z,7.20
2023-11-30T07:32:44.625Z,6.63
2023-11-30T07:37:45.973Z,8.43
2023-11-30T07:42:47.312Z,6.80
2023-11-30T07:47:48.702Z,6.70
2023-11-30T07:52:50.116Z,14.05
2023-11-30T07:57:51.428Z,7.13
2023-11-30T08:02:53.845Z,7.65
2023-11-30T08:07:55.959Z,18.87
2023-11-30T08:12:57.622Z,11.07
2023-11-30T08:17:58.972Z,6.38
2023-11-30T08:23:00.304Z,6.77
2023-11-30T08:28:01.615Z,6.40
2023-11-30T08:33:06.859Z,7.03
2023-11-30T08:38:10.262Z,9.40
2023-11-30T08:43:11.574Z,9.43
2023-11-30T08:48:13.110Z,5.80
2023-11-30T08:53:14.589Z,6.53
2023-11-30T08:58:16.228Z,6.97
2023-11-30T09:03:19.291Z,6.85
2023-11-30T09:08:20.746Z,6.85
2023-11-30T09:13:22.178Z,6.67
2023-11-30T09:18:24.111Z,7.32
2023-11-30T09:23:27.406Z,8.07
2023-11-30T09:28:29.093Z,8.43
2023-11-30T09:33:30.487Z,6.88
2023-11-30T09:38:32.461Z,6.30
2023-11-30T09:43:34.043Z,7.85
2023-11-30T09:48:35.397Z,6.30
2023-11-30T09:53:36.771Z,6.07
2023-11-30T09:58:38.739Z,6.55
2023-11-30T10:03:40.193Z,6.20
2023-11-30T10:08:42.191Z,7.13
2023-11-30T10:13:43.942Z,7.20
2023-11-30T10:18:46.126Z,7.45
2023-11-30T10:23:47.665Z,7.25
2023-11-30T10:28:50.089Z,7.57
2023-11-30T10:33:56.028Z,6.60
2023-11-30T10:39:02.308Z,6.00
2023-11-30T10:44:04.667Z,5.90
2023-11-30T10:49:06.755Z,6.00
2023-11-30T10:54:13.384Z,5.73
2023-11-30T10:59:15.414Z,5.57
2023-11-30T11:04:16.860Z,6.13
2023-11-30T11:09:18.399Z,5.30
2023-11-30T11:14:46.117Z,4.90
2023-11-30T11:19:47.468Z,4.70
2023-11-30T11:24:49.273Z,4.72
2023-11-30T11:29:50.624Z,5.00
2023-11-30T11:34:52.072Z,6.28
2023-11-30T11:39:53.554Z,5.22
2023-11-30T11:44:54.916Z,4.77
2023-11-30T11:49:56.275Z,5.13
2023-11-30T11:55:01.652Z,6.27
2023-11-30T12:00:08.549Z,5.22
2023-11-30T12:05:14.105Z,5.20
2023-11-30T12:10:34.043Z,5.77
2023-11-30T12:15:35.389Z,6.43
2023-11-30T12:20:36.743Z,6.27
2023-11-30T12:25:39.617Z,5.60
2023-11-30T12:30:41.063Z,5.25
2023-11-30T12:35:42.497Z,6.10
2023-11-30T12:40:43.810Z,5.90
2023-11-30T12:45:45.342Z,5.80
2023-11-30T12:50:46.714Z,5.35
2023-11-30T12:55:48.085Z,5.53
2023-11-30T13:00:49.494Z,4.80
2023-11-30T13:05:50.829Z,5.75
2023-11-30T13:10:52.208Z,5.50
2023-11-30T13:15:54.969Z,5.30
2023-11-30T13:20:56.332Z,5.72
2023-11-30T13:25:58.756Z,6.07
2023-11-30T13:31:00.246Z,6.13
2023-11-30T13:36:01.647Z,6.90
2023-11-30T13:41:03.048Z,6.78
2023-11-30T13:46:05.606Z,7.35
2023-11-30T13:51:10.341Z,8.90
2023-11-30T13:56:12.077Z,8.23
2023-11-30T14:01:13.740Z,7.50
2023-11-30T14:06:19.031Z,8.20
2023-11-30T14:11:20.412Z,8.95
2023-11-30T14:16:22.062Z,8.00
2023-11-30T14:21:23.436Z,7.68
2023-11-30T14:26:26.729Z,7.07
2023-11-30T14:31:28.134Z,7.15
2023-11-30T14:36:30.772Z,7.00
2023-11-30T14:41:32.505Z,7.90
2023-11-30T14:46:34.566Z,7.30
2023-11-30T14:51:36.540Z,8.70
2023-11-30T14:56:37.916Z,8.70
2023-11-30T15:01:39.828Z,9.07
2023-11-30T15:06:41.499Z,9.00
2023-11-30T15:11:44.305Z,9.00
2023-11-30T15:16:45.652Z,9.60
2023-11-30T15:21:47.133Z,11.00
2023-11-30T15:26:48.469Z,14.18
2023-11-30T15:31:49.947Z,12.43
2023-11-30T15:36:51.399Z,12.20
2023-11-30T15:41:52.895Z,10.73
2023-11-30T15:46:54.240Z,10.15
2023-11-30T15:51:55.646Z,10.45
2023-11-30T15:56:57.052Z,11.67
2023-11-30T16:01:58.486Z,12.27
2023-11-30T16:06:59.963Z,14.43
2023-11-30T16:12:01.347Z,15.18
2023-11-30T16:17:02.963Z,14.82
2023-11-30T16:22:04.917Z,14.03
2023-11-30T16:27:06.331Z,13.70
2023-11-30T16:32:07.674Z,15.97
2023-11-30T16:37:09.706Z,15.88
2023-11-30T16:42:11.066Z,19.90
2023-11-30T16:47:13.531Z,12.83
2023-11-30T16:52:14.924Z,17.50
2023-11-30T16:57:16.451Z,11.70
2023-11-30T17:02:18.160Z,14.27
2023-11-30T17:07:21.537Z,13.45
2023-11-30T17:12:23.005Z,13.10
2023-11-30T17:17:24.470Z,13.82
2023-11-30T17:22:25.783Z,17.57
2023-11-30T17:27:27.140Z,14.23
2023-11-30T17:32:28.929Z,16.90
2023-11-30T17:37:30.364Z,14.53
2023-11-30T17:42:31.750Z,13.68
2023-11-30T17:47:34.350Z,12.53
2023-11-30T17:52:35.798Z,12.75
2023-11-30T17:57:37.272Z,12.27
2023-11-30T18:02:38.713Z,12.33
2023-11-30T18:07:40.025Z,13.30
2023-11-30T18:12:41.487Z,14.93
2023-11-30T18:17:42.843Z,20.75
2023-11-30T18:22:44.196Z,25.38
2023-11-30T18:27:45.634Z,12.23
2023-11-30T18:32:47.233Z,11.48
2023-11-30T18:37:48.664Z,12.13
2023-11-30T18:42:50.112Z,10.98
2023-11-30T18:47:51.838Z,9.98
2023-11-30T18:52:53.645Z,10.77
2023-11-30T18:57:55.076Z,10.88
2023-11-30T19:02:56.611Z,12.23
2023-11-30T19:07:58.068Z,12.60
2023-11-30T19:12:59.442Z,12.50
2023-11-30T19:18:01.413Z,12.37
2023-11-30T19:23:02.847Z,11.60
2023-11-30T19:28:04.369Z,10.60
2023-11-30T19:33:05.999Z,11.57
2023-11-30T19:38:07.390Z,13.75
2023-11-30T19:43:08.740Z,13.73
2023-11-30T19:48:10.308Z,12.93
2023-11-30T19:53:11.689Z,10.57
2023-11-30T19:58:16.084Z,11.90
2023-11-30T20:03:17.581Z,11.75
2023-11-30T20:08:18.969Z,12.13
2023-11-30T20:13:20.461Z,11.85
2023-11-30T20:18:21.816Z,12.70
2023-11-30T20:23:23.236Z,10.98
2023-11-30T20:28:24.634Z,17.20
2023-11-30T20:33:25.970Z,26.83
2023-11-30T20:38:29.323Z,16.00
2023-11-30T20:43:30.919Z,13.27
2023-11-30T20:48:32.317Z,12.32
2023-11-30T20:53:33.775Z,12.60
2023-11-30T20:58:36.025Z,13.97
2023-11-30T21:03:37.828Z,12.73
2023-11-30T21:08:39.220Z,13.50
2023-11-30T21:13:40.730Z,12.95
2023-11-30T21:18:46.047Z,17.58
2023-11-30T21:23:47.513Z,15.37
2023-11-30T21:28:48.984Z,18.25
2023-11-30T21:33:50.969Z,14.03
2023-11-30T21:38:52.387Z,13.45
2023-11-30T21:43:53.707Z,14.18
2023-11-30T21:48:55.117Z,13.60
2023-11-30T21:53:56.477Z,15.10
2023-11-30T21:58:57.906Z,15.77
2023-11-30T22:03:59.458Z,14.77
2023-11-30T22:09:02.013Z,14.02
2023-11-30T22:14:03.376Z,12.20
2023-11-30T22:19:04.851Z,12.57
2023-11-30T22:24:06.443Z,12.10
2023-11-30T22:29:07.797Z,9.32
2023-11-30T22:34:09.457Z,10.45
2023-11-30T22:39:14.145Z,10.23
2023-11-30T22:44:15.506Z,10.57
2023-11-30T22:49:17.506Z,9.87
2023-11-30T22:54:19.090Z,10.25
2023-11-30T22:59:21.617Z,10.13
2023-11-30T23:04:23.099Z,12.43
2023-11-30T23:09:24.560Z,12.00
2023-11-30T23:14:25.852Z,9.43
2023-11-30T23:19:28.723Z,10.43
2023-11-30T23:24:32.031Z,10.32
2023-11-30T23:29:36.800Z,11.77
2023-11-30T23:34:38.209Z,11.57
2023-11-30T23:39:39.690Z,10.33
2023-11-30T23:44:41.093Z,9.50
2023-11-30T23:49:42.457Z,10.05
2023-11-30T23:54:43.929Z,8.97
2023-11-30T23:59:45.347Z,9.85
